createdAt,value
2018-06-22T00:00:12.187Z,1.47
2018-06-22T00:02:40.793Z,1.60
2018-06-22T00:05:09.694Z,1.50
2018-06-22T00:07:38.690Z,1.47
2018-06-22T00:10:07.436Z,1.40
2018-06-22T00:12:36.131Z,1.30
2018-06-22T00:15:05.361Z,1.50
2018-06-22T00:17:34.105Z,1.50
2018-06-22T00:20:02.771Z,1.20
2018-06-22T00:22:31.392Z,1.43
2018-06-22T00:24:59.800Z,1.33
2018-06-22T00:27:28.742Z,1.27
2018-06-22T00:29:57.173Z,1.37
2018-06-22T00:32:25.882Z,1.27
2018-06-22T00:34:54.844Z,1.30
2018-06-22T00:37:23.872Z,1.20
2018-06-22T00:39:52.680Z,1.20
2018-06-22T00:42:21.345Z,1.20
2018-06-22T00:44:49.847Z,1.23
2018-06-22T00:47:18.868Z,1.30
2018-06-22T00:49:47.404Z,1.20
2018-06-22T00:52:16.960Z,1.10
2018-06-22T00:54:45.892Z,1.23
2018-06-22T00:57:15.023Z,1.47
2018-06-22T00:59:43.864Z,1.40
2018-06-22T01:02:13.140Z,1.30
2018-06-22T01:04:42.193Z,1.30
2018-06-22T01:07:11.125Z,1.20
2018-06-22T01:09:39.874Z,1.30
2018-06-22T01:12:08.536Z,1.37
2018-06-22T01:14:37.800Z,1.30
2018-06-22T01:17:06.493Z,1.20
2018-06-22T01:19:35.201Z,1.50
2018-06-22T01:22:04.284Z,1.50
2018-06-22T01:24:32.941Z,1.30
2018-06-22T01:27:01.572Z,1.17
2018-06-22T01:29:30.780Z,1.40
2018-06-22T01:32:00.017Z,1.37
2018-06-22T01:34:28.825Z,1.27
2018-06-22T01:36:57.277Z,1.40
2018-06-22T01:39:26.203Z,1.60
2018-06-22T01:41:54.762Z,1.53
2018-06-22T01:44:23.702Z,1.30
2018-06-22T01:46:52.370Z,1.43
2018-06-22T01:49:20.980Z,1.30
2018-06-22T01:51:50.033Z,1.30
2018-06-22T01:54:19.324Z,1.30
2018-06-22T01:56:47.948Z,1.27
2018-06-22T01:59:16.707Z,1.47
2018-06-22T02:01:45.316Z,1.33
2018-06-22T02:04:13.773Z,1.20
2018-06-22T02:06:42.684Z,1.30
2018-06-22T02:09:12.633Z,1.20
2018-06-22T02:11:41.516Z,1.07
2018-06-22T02:14:10.016Z,1.30
2018-06-22T02:16:38.443Z,1.40
2018-06-22T02:19:07.303Z,1.20
2018-06-22T02:21:35.724Z,1.33
2018-06-22T02:24:04.444Z,1.30
2018-06-22T02:26:33.684Z,1.17
2018-06-22T02:29:02.712Z,1.30
2018-06-22T02:31:31.425Z,1.30
2018-06-22T02:34:00.083Z,1.47
2018-06-22T02:36:29.034Z,1.40
2018-06-22T02:38:57.489Z,1.20
2018-06-22T02:41:26.474Z,1.50
2018-06-22T02:43:55.160Z,1.20
2018-06-22T02:46:23.924Z,1.30
2018-06-22T02:48:53.149Z,1.60
2018-06-22T02:51:22.229Z,1.37
2018-06-22T02:53:50.808Z,1.70
2018-06-22T02:56:19.507Z,1.50
2018-06-22T02:58:48.224Z,1.37
2018-06-22T03:01:16.670Z,1.30
2018-06-22T03:03:45.520Z,1.53
2018-06-22T03:06:13.949Z,1.53
2018-06-22T03:08:42.741Z,1.20
2018-06-22T03:11:11.633Z,1.80
2018-06-22T03:13:40.449Z,1.40
2018-06-22T03:16:10.240Z,1.47
2018-06-22T03:18:38.924Z,1.57
2018-06-22T03:21:07.633Z,1.30
2018-06-22T03:23:36.352Z,1.20
2018-06-22T03:26:05.109Z,1.23
2018-06-22T03:28:33.976Z,1.30
2018-06-22T03:31:02.796Z,1.20
2018-06-22T03:33:31.328Z,1.30
2018-06-22T03:35:59.712Z,1.10
2018-06-22T03:38:28.219Z,1.33
2018-06-22T03:40:57.076Z,1.17
2018-06-22T03:43:25.772Z,1.30
2018-06-22T03:45:54.468Z,1.30
2018-06-22T03:48:22.929Z,1.00
2018-06-22T03:50:51.604Z,1.20
2018-06-22T03:53:20.259Z,1.37
2018-06-22T03:55:49.248Z,1.20
2018-06-22T03:58:18.193Z,1.10
2018-06-22T04:00:46.892Z,1.17
2018-06-22T04:03:15.572Z,1.30
2018-06-22T04:05:44.608Z,1.10
2018-06-22T04:08:13.431Z,1.03
2018-06-22T04:10:42.133Z,1.13
2018-06-22T04:13:10.904Z,1.00
2018-06-22T04:15:39.945Z,1.07
2018-06-22T04:18:08.917Z,1.03
2018-06-22T04:20:37.632Z,1.10
2018-06-22T04:23:06.297Z,1.10
2018-06-22T04:25:35.537Z,1.30
2018-06-22T04:28:04.448Z,1.30
2018-06-22T04:30:33.064Z,1.23
2018-06-22T04:33:02.582Z,1.33
2018-06-22T04:35:31.884Z,1.20
2018-06-22T04:38:00.672Z,1.17
2018-06-22T04:40:29.297Z,1.20
2018-06-22T04:42:58.227Z,1.10
2018-06-22T04:45:26.904Z,1.23
2018-06-22T04:47:55.421Z,1.30
2018-06-22T04:50:24.620Z,1.40
2018-06-22T04:52:53.587Z,1.10
2018-06-22T04:55:21.972Z,1.37
2018-06-22T04:57:50.692Z,1.50
2018-06-22T05:00:20.040Z,1.30
2018-06-22T05:02:49.270Z,1.37
2018-06-22T05:05:17.980Z,1.13
2018-06-22T05:07:46.663Z,1.30
2018-06-22T05:10:15.330Z,1.20
2018-06-22T05:12:43.813Z,1.70
2018-06-22T05:15:12.764Z,1.40
2018-06-22T05:17:41.389Z,1.20
2018-06-22T05:20:10.089Z,1.17
2018-06-22T05:22:39.197Z,1.40
2018-06-22T05:25:08.088Z,1.50
2018-06-22T05:27:37.437Z,1.40
2018-06-22T05:30:06.465Z,1.30
2018-06-22T05:32:35.628Z,1.33
2018-06-22T05:35:04.148Z,1.37
2018-06-22T05:37:33.052Z,1.30
2018-06-22T05:40:01.833Z,1.30
2018-06-22T05:42:30.745Z,1.30
2018-06-22T05:44:59.837Z,1.30
2018-06-22T05:47:28.422Z,1.30
2018-06-22T05:49:56.889Z,1.30
2018-06-22T05:52:25.588Z,1.17
2018-06-22T05:54:54.308Z,1.40
2018-06-22T05:57:22.957Z,1.33
2018-06-22T05:59:51.544Z,1.30
2018-06-22T06:02:20.645Z,1.70
2018-06-22T06:04:49.656Z,1.40
2018-06-22T06:07:18.192Z,1.77
2018-06-22T06:09:47.433Z,1.57
2018-06-22T06:12:16.752Z,1.53
2018-06-22T06:14:46.065Z,1.20
2018-06-22T06:17:14.504Z,1.63
2018-06-22T06:19:43.272Z,1.50
2018-06-22T06:22:11.877Z,1.57
2018-06-22T06:24:40.643Z,1.30
2018-06-22T06:27:09.567Z,1.60
2018-06-22T06:29:38.215Z,1.63
2018-06-22T06:32:06.709Z,1.47
2018-06-22T06:34:35.375Z,1.30
2018-06-22T06:37:04.065Z,1.40
2018-06-22T06:39:32.781Z,1.40
2018-06-22T06:42:01.933Z,1.40
2018-06-22T06:44:31.003Z,1.30
2018-06-22T06:47:00.014Z,1.40
2018-06-22T06:49:29.012Z,1.30
2018-06-22T06:51:57.947Z,1.40
2018-06-22T06:54:27.003Z,1.40
2018-06-22T06:56:55.745Z,1.40
2018-06-22T06:59:24.712Z,1.37
2018-06-22T07:01:53.633Z,1.53
2018-06-22T07:04:23.111Z,1.20
2018-06-22T07:06:52.272Z,1.60
2018-06-22T07:09:21.624Z,1.70
2018-06-22T07:11:50.312Z,1.50
2018-06-22T07:14:19.288Z,1.33
2018-06-22T07:16:47.940Z,1.50
2018-06-22T07:19:16.660Z,1.60
2018-06-22T07:21:45.253Z,1.30
2018-06-22T07:24:13.725Z,1.50
2018-06-22T07:26:42.764Z,1.30
2018-06-22T07:29:11.312Z,1.60
2018-06-22T07:31:39.792Z,1.40
2018-06-22T07:34:08.401Z,1.50
2018-06-22T07:36:37.078Z,1.40
2018-06-22T07:39:07.608Z,1.40
2018-06-22T07:41:36.371Z,1.60
2018-06-22T07:44:04.954Z,1.40
2018-06-22T07:46:33.397Z,1.53
2018-06-22T07:49:02.081Z,1.60
2018-06-22T07:51:31.118Z,1.40
2018-06-22T07:53:59.712Z,1.60
2018-06-22T07:56:28.125Z,1.37
2018-06-22T07:58:56.866Z,1.57
2018-06-22T08:01:25.484Z,1.40
2018-06-22T08:03:54.148Z,1.60
2018-06-22T08:06:22.648Z,1.43
2018-06-22T08:08:51.016Z,1.27
2018-06-22T08:11:19.973Z,1.20
2018-06-22T08:13:48.621Z,1.47
2018-06-22T08:16:17.373Z,1.00
2018-06-22T08:18:46.083Z,1.23
2018-06-22T08:21:14.976Z,1.10
2018-06-22T08:23:43.637Z,1.10
2018-06-22T08:26:12.135Z,1.20
2018-06-22T08:28:40.732Z,1.20
2018-06-22T08:31:09.696Z,1.27
2018-06-22T08:33:38.112Z,1.17
2018-06-22T08:36:06.820Z,1.30
2018-06-22T08:38:36.068Z,1.40
2018-06-22T08:41:04.620Z,1.27
2018-06-22T08:43:33.459Z,1.47
2018-06-22T08:46:02.189Z,1.20
2018-06-22T08:48:30.909Z,1.57
2018-06-22T08:50:59.514Z,1.13
2018-06-22T08:53:28.013Z,1.37
2018-06-22T08:55:56.876Z,1.17
2018-06-22T08:58:25.360Z,1.27
2018-06-22T09:00:54.069Z,1.30
2018-06-22T09:03:22.657Z,1.20
2018-06-22T09:05:51.682Z,1.00
2018-06-22T09:08:20.863Z,1.40
2018-06-22T09:10:49.657Z,1.20
2018-06-22T09:13:18.907Z,1.23
2018-06-22T09:15:47.309Z,1.23
2018-06-22T09:18:16.281Z,1.37
2018-06-22T09:20:44.801Z,1.30
2018-06-22T09:23:13.960Z,1.20
2018-06-22T09:25:42.700Z,1.30
2018-06-22T09:28:11.701Z,1.10
2018-06-22T09:30:40.688Z,1.23
2018-06-22T09:33:09.351Z,1.23
2018-06-22T09:35:38.009Z,1.20
2018-06-22T09:38:07.593Z,1.00
2018-06-22T09:40:36.048Z,1.10
2018-06-22T09:43:04.680Z,1.20
2018-06-22T09:45:33.420Z,1.20
2018-06-22T09:48:02.117Z,1.10
2018-06-22T09:50:31.368Z,1.30
2018-06-22T09:52:59.744Z,1.30
2018-06-22T09:55:28.421Z,1.40
2018-06-22T09:57:56.901Z,1.13
2018-06-22T10:00:25.524Z,1.40
2018-06-22T10:02:54.256Z,1.10
2018-06-22T10:05:23.225Z,1.00
2018-06-22T10:07:52.467Z,1.10
2018-06-22T10:10:20.964Z,1.03
2018-06-22T10:12:49.908Z,1.20
2018-06-22T10:15:18.760Z,1.50
2018-06-22T10:17:47.497Z,1.20
2018-06-22T10:20:15.948Z,1.00
2018-06-22T10:22:44.663Z,1.40
2018-06-22T10:25:13.320Z,1.13
2018-06-22T10:27:41.744Z,1.40
2018-06-22T10:30:10.364Z,1.60
2018-06-22T10:32:39.369Z,1.30
2018-06-22T10:35:08.308Z,1.17
2018-06-22T10:37:37.219Z,1.30
2018-06-22T10:40:06.111Z,1.00
2018-06-22T10:42:35.292Z,1.30
2018-06-22T10:45:04.073Z,1.10
2018-06-22T10:47:32.800Z,1.30
2018-06-22T10:50:01.380Z,1.30
2018-06-22T10:52:29.813Z,1.30
2018-06-22T10:54:58.273Z,1.20
2018-06-22T10:57:26.913Z,1.33
2018-06-22T10:59:55.628Z,1.23
2018-06-22T11:02:24.356Z,1.17
2018-06-22T11:04:52.883Z,1.10
2018-06-22T11:07:21.376Z,1.30
2018-06-22T11:09:50.080Z,1.13
2018-06-22T11:12:18.693Z,1.20
2018-06-22T11:14:47.320Z,1.30
2018-06-22T11:17:15.747Z,1.37
2018-06-22T11:19:44.500Z,1.20
2018-06-22T11:22:13.093Z,1.00
2018-06-22T11:24:42.113Z,1.37
2018-06-22T11:27:10.916Z,1.20
2018-06-22T11:29:39.573Z,1.23
2018-06-22T11:32:08.177Z,1.20
2018-06-22T11:34:36.900Z,1.20
2018-06-22T11:37:05.297Z,1.30
2018-06-22T11:39:33.997Z,1.00
2018-06-22T11:42:02.588Z,1.13
2018-06-22T11:44:31.379Z,1.13
2018-06-22T11:47:00.313Z,1.03
2018-06-22T11:49:29.272Z,1.40
2018-06-22T11:51:57.753Z,1.20
2018-06-22T11:54:26.417Z,1.10
2018-06-22T11:56:55.021Z,1.00
2018-06-22T11:59:23.732Z,1.33
2018-06-22T12:01:52.669Z,1.03
2018-06-22T12:04:21.360Z,1.10
2018-06-22T12:06:49.796Z,1.30
2018-06-22T12:09:19.012Z,1.27
2018-06-22T12:11:47.733Z,1.30
2018-06-22T12:14:16.253Z,1.40
2018-06-22T12:16:45.125Z,1.40
2018-06-22T12:19:14.210Z,1.70
2018-06-22T12:21:42.841Z,1.53
2018-06-22T12:24:11.489Z,1.40
2018-06-22T12:26:40.460Z,1.60
2018-06-22T12:29:08.892Z,1.47
2018-06-22T12:31:37.572Z,1.40
2018-06-22T12:34:06.293Z,1.80
2018-06-22T12:36:35.193Z,1.40
2018-06-22T12:39:04.264Z,1.50
2018-06-22T12:41:32.895Z,1.50
2018-06-22T12:44:01.397Z,1.50
2018-06-22T12:46:30.360Z,1.50
2018-06-22T12:48:59.313Z,1.50
2018-06-22T12:51:27.984Z,1.50
2018-06-22T12:53:56.948Z,1.73
2018-06-22T12:56:25.717Z,1.60
2018-06-22T12:58:54.321Z,1.60
2018-06-22T13:01:22.748Z,1.70
2018-06-22T13:03:51.752Z,1.40
2018-06-22T13:06:20.693Z,1.73
2018-06-22T13:08:49.461Z,1.50
2018-06-22T13:11:18.223Z,1.47
2018-06-22T13:13:46.776Z,1.57
2018-06-22T13:16:15.785Z,1.50
2018-06-22T13:18:44.965Z,1.50
2018-06-22T13:21:13.920Z,1.33
2018-06-22T13:23:42.737Z,1.30
2018-06-22T13:26:11.521Z,1.40
2018-06-22T13:28:40.401Z,1.20
2018-06-22T13:31:08.796Z,1.50
2018-06-22T13:33:37.568Z,1.40
2018-06-22T13:36:06.749Z,1.30
2018-06-22T13:38:35.413Z,1.33
2018-06-22T13:41:03.952Z,1.27
2018-06-22T13:43:32.538Z,1.40
2018-06-22T13:46:00.997Z,1.47
2018-06-22T13:48:29.828Z,1.47
2018-06-22T13:50:58.549Z,1.33
2018-06-22T13:53:26.873Z,1.30
2018-06-22T13:55:55.196Z,1.40
2018-06-22T13:58:23.688Z,1.37
2018-06-22T14:00:52.808Z,1.83
2018-06-22T14:03:21.717Z,1.40
2018-06-22T14:05:55.340Z,1.50
2018-06-22T14:08:23.732Z,1.60
2018-06-22T14:10:52.160Z,1.50
2018-06-22T14:13:20.920Z,1.37
2018-06-22T14:15:49.436Z,1.27
2018-06-22T14:18:17.776Z,1.20
2018-06-22T14:20:46.201Z,1.40
2018-06-22T14:23:14.569Z,1.47
2018-06-22T14:25:43.096Z,1.23
2018-06-22T14:28:12.112Z,1.30
2018-06-22T14:30:40.732Z,1.60
2018-06-22T14:33:09.061Z,1.73
2018-06-22T14:35:37.393Z,1.70
2018-06-22T14:38:05.737Z,1.30
2018-06-22T14:40:34.076Z,1.20
2018-06-22T14:43:02.408Z,1.40
2018-06-22T14:45:30.783Z,1.27
2018-06-22T14:47:59.101Z,1.00
2018-06-22T14:50:27.416Z,1.20
2018-06-22T14:52:55.749Z,1.20
2018-06-22T14:55:29.261Z,1.20
2018-06-22T14:58:02.953Z,1.10
2018-06-22T15:02:38.766Z,1.20
2018-06-22T15:05:12.548Z,1.00
2018-06-22T15:07:46.109Z,0.97
2018-06-22T15:10:14.634Z,1.10
2018-06-22T15:12:43.389Z,1.10
2018-06-22T15:15:11.895Z,1.40
2018-06-22T15:17:45.601Z,1.00
2018-06-22T15:20:13.960Z,0.93
2018-06-22T15:22:42.641Z,1.10
2018-06-22T15:25:11.024Z,1.27
2018-06-22T15:27:39.750Z,1.20
2018-06-22T15:30:08.493Z,1.30
2018-06-22T15:32:36.884Z,0.97
2018-06-22T15:35:10.472Z,1.00
2018-06-22T15:37:44.275Z,1.00
2018-06-22T15:40:17.921Z,1.17
2018-06-22T15:42:51.460Z,1.03
2018-06-22T15:45:25.137Z,0.97
2018-06-22T15:47:58.804Z,1.00
2018-06-22T15:50:32.525Z,1.10
2018-06-22T15:53:06.743Z,0.80
2018-06-22T15:55:39.387Z,1.00
2018-06-22T15:58:08.009Z,1.00
2018-06-22T16:00:36.803Z,1.20
2018-06-22T16:03:10.814Z,0.90
2018-06-22T16:05:39.624Z,1.00
2018-06-22T16:08:08.326Z,1.10
2018-06-22T16:10:36.962Z,1.00
2018-06-22T16:13:11.280Z,1.20
2018-06-22T16:15:45.544Z,1.00
2018-06-22T16:18:19.436Z,0.90
2018-06-22T16:20:53.598Z,1.00
2018-06-22T16:23:27.815Z,1.10
2018-06-22T16:26:01.801Z,0.80
2018-06-22T16:28:30.641Z,1.00
2018-06-22T16:30:59.337Z,1.10
2018-06-22T16:33:28.354Z,1.13
2018-06-22T16:35:58.308Z,1.13
2018-06-22T16:38:27.368Z,1.00
2018-06-22T16:40:55.932Z,1.03
2018-06-22T16:43:25.068Z,1.20
2018-06-22T16:45:53.660Z,1.10
2018-06-22T16:48:22.416Z,1.20
2018-06-22T16:50:51.309Z,1.40
2018-06-22T16:53:20.063Z,1.53
2018-06-22T16:55:48.761Z,1.10
2018-06-22T16:58:22.537Z,1.40
2018-06-22T17:00:51.545Z,1.30
2018-06-22T17:03:20.596Z,1.30
2018-06-22T17:05:49.009Z,1.20
2018-06-22T17:08:22.965Z,1.27
2018-06-22T17:10:56.824Z,1.00
2018-06-22T17:13:30.741Z,1.47
2018-06-22T17:16:04.616Z,1.23
2018-06-22T17:18:38.708Z,1.43
2018-06-22T17:21:07.149Z,1.30
2018-06-22T17:23:35.564Z,1.40
2018-06-22T17:26:03.976Z,1.30
2018-06-22T17:28:32.608Z,1.30
2018-06-22T17:31:01.457Z,1.23
2018-06-22T17:33:30.104Z,1.20
2018-06-22T17:35:58.652Z,1.07
2018-06-22T17:38:27.640Z,1.00
2018-06-22T17:40:57.371Z,1.00
2018-06-22T17:43:26.017Z,0.90
2018-06-22T17:45:54.774Z,1.30
2018-06-22T17:48:23.312Z,1.00
2018-06-22T17:50:52.020Z,1.50
2018-06-22T17:53:21.025Z,1.37
2018-06-22T17:55:49.753Z,1.80
2018-06-22T17:58:18.422Z,1.30
2018-06-22T18:00:52.407Z,1.47
2018-06-22T18:03:26.157Z,1.53
2018-06-22T18:05:59.955Z,1.37
2018-06-22T18:08:33.644Z,1.20
2018-06-22T18:11:07.322Z,1.20
2018-06-22T18:13:36.365Z,1.40
2018-06-22T18:16:05.020Z,1.20
2018-06-22T18:18:33.719Z,1.40
2018-06-22T18:21:02.380Z,1.10
2018-06-22T18:23:31.120Z,1.30
2018-06-22T18:25:59.749Z,1.10
2018-06-22T18:28:28.429Z,1.23
2018-06-22T18:30:56.896Z,1.23
2018-06-22T18:33:25.759Z,1.10
2018-06-22T18:35:55.366Z,1.03
2018-06-22T18:38:24.186Z,1.10
2018-06-22T18:40:52.983Z,1.00
2018-06-22T18:43:26.769Z,1.40
2018-06-22T18:45:55.470Z,1.23
2018-06-22T18:48:24.081Z,1.20
2018-06-22T18:50:53.056Z,1.10
2018-06-22T18:53:26.877Z,1.17
2018-06-22T18:56:00.496Z,1.23
2018-06-22T18:58:34.289Z,1.37
2018-06-22T19:01:08.208Z,1.10
2018-06-22T19:03:42.000Z,1.10
2018-06-22T19:06:10.661Z,1.37
2018-06-22T19:08:39.367Z,1.10
2018-06-22T19:11:08.652Z,1.20
2018-06-22T19:13:38.400Z,1.20
2018-06-22T19:16:07.152Z,1.20
2018-06-22T19:18:35.951Z,1.30
2018-06-22T19:21:05.137Z,1.27
2018-06-22T19:23:33.632Z,1.30
2018-06-22T19:26:02.401Z,1.10
2018-06-22T19:28:31.012Z,1.30
2018-06-22T19:31:00.006Z,1.40
2018-06-22T19:33:28.676Z,1.70
2018-06-22T19:35:57.408Z,2.13
2018-06-22T19:38:26.115Z,1.70
2018-06-22T19:40:55.494Z,1.90
2018-06-22T19:43:29.303Z,2.30
2018-06-22T19:46:03.122Z,2.30
2018-06-22T19:50:39.572Z,1.87
2018-06-22T19:53:13.433Z,1.67
2018-06-22T19:55:42.048Z,1.70
2018-06-22T19:58:10.896Z,1.70
2018-06-22T20:00:39.558Z,1.80
2018-06-22T20:03:08.005Z,1.73
2018-06-22T20:05:36.396Z,1.60
2018-06-22T20:08:05.201Z,1.93
2018-06-22T20:10:33.777Z,1.90
2018-06-22T20:13:02.770Z,1.77
2018-06-22T20:15:31.744Z,1.90
2018-06-22T20:18:00.545Z,1.80
2018-06-22T20:20:29.234Z,1.70
2018-06-22T20:22:57.837Z,1.70
2018-06-22T20:25:32.109Z,1.70
2018-06-22T20:28:01.013Z,1.50
2018-06-22T20:30:29.720Z,1.50
2018-06-22T20:32:58.490Z,1.60
2018-06-22T20:35:32.485Z,1.50
2018-06-22T20:38:06.212Z,1.57
2018-06-22T20:40:39.805Z,1.50
2018-06-22T20:43:13.543Z,1.40
2018-06-22T20:45:55.916Z,1.27
2018-06-22T20:48:29.761Z,1.40
2018-06-22T20:50:58.203Z,1.30
2018-06-22T20:53:27.478Z,1.57
2018-06-22T20:55:55.940Z,1.60
2018-06-22T20:58:24.583Z,1.30
2018-06-22T21:00:53.060Z,1.80
2018-06-22T21:03:21.944Z,1.40
2018-06-22T21:05:50.429Z,1.40
2018-06-22T21:08:19.063Z,1.60
2018-06-22T21:10:47.752Z,1.27
2018-06-22T21:13:16.461Z,1.43
2018-06-22T21:15:45.723Z,1.50
2018-06-22T21:18:14.468Z,1.60
2018-06-22T21:20:48.353Z,1.50
2018-06-22T21:23:17.292Z,1.30
2018-06-22T21:25:45.993Z,1.27
2018-06-22T21:28:19.660Z,1.33
2018-06-22T21:30:53.497Z,1.40
2018-06-22T21:33:27.585Z,1.60
2018-06-22T21:36:01.345Z,1.87
2018-06-22T21:39:04.316Z,1.53
2018-06-22T21:41:32.784Z,1.70
2018-06-22T21:44:01.851Z,1.30
2018-06-22T21:46:30.776Z,1.40
2018-06-22T21:48:59.457Z,1.30
2018-06-22T21:51:28.234Z,1.50
2018-06-22T21:53:59.105Z,1.47
2018-06-22T21:56:27.980Z,1.50
2018-06-22T21:58:56.716Z,1.77
2018-06-22T22:01:25.430Z,1.50
2018-06-22T22:03:54.113Z,1.30
2018-06-22T22:06:22.820Z,1.13
2018-06-22T22:08:51.718Z,1.33
2018-06-22T22:11:20.513Z,1.40
2018-06-22T22:13:49.192Z,1.60
2018-06-22T22:16:17.797Z,1.43
2018-06-22T22:18:46.781Z,1.47
2018-06-22T22:21:15.752Z,1.30
2018-06-22T22:23:44.532Z,1.30
2018-06-22T22:26:13.596Z,1.43
2018-06-22T22:28:42.220Z,1.30
2018-06-22T22:31:10.960Z,1.40
2018-06-22T22:33:39.788Z,1.57
2018-06-22T22:36:08.506Z,1.50
2018-06-22T22:38:37.229Z,1.53
2018-06-22T22:41:06.726Z,1.40
2018-06-22T22:43:35.472Z,1.37
2018-06-22T22:46:04.149Z,1.50
2018-06-22T22:48:32.698Z,1.60
2018-06-22T22:51:01.246Z,1.40
2018-06-22T22:53:29.893Z,1.50
2018-06-22T22:55:58.389Z,1.47
2018-06-22T22:58:27.077Z,1.40
2018-06-22T23:00:55.709Z,1.73
2018-06-22T23:03:24.369Z,1.43
2018-06-22T23:05:53.020Z,1.50
2018-06-22T23:08:21.437Z,1.20
2018-06-22T23:10:50.139Z,1.50
2018-06-22T23:13:18.868Z,1.40
2018-06-22T23:15:47.497Z,1.47
2018-06-22T23:18:16.200Z,1.30
2018-06-22T23:20:45.157Z,1.33
2018-06-22T23:23:19.077Z,1.50
2018-06-22T23:25:47.748Z,1.50
2018-06-22T23:28:16.445Z,1.30
2018-06-22T23:30:45.184Z,1.47
2018-06-22T23:33:13.917Z,1.30
2018-06-22T23:35:42.685Z,1.40
2018-06-22T23:38:11.252Z,1.40
2018-06-22T23:40:40.229Z,1.30
2018-06-22T23:43:09.224Z,1.33
2018-06-22T23:45:38.454Z,1.60
2018-06-22T23:48:06.971Z,1.27
2018-06-22T23:50:35.789Z,1.30
2018-06-22T23:53:04.396Z,1.23
2018-06-22T23:55:33.169Z,1.27
2018-06-22T23:58:01.636Z,1.43
